createdAt,value
2023-02-07T00:01:53.676Z,8.18
2023-02-07T00:04:20.299Z,7.70
2023-02-07T00:06:46.959Z,7.65
2023-02-07T00:09:13.630Z,7.43
2023-02-07T00:11:41.063Z,8.25
2023-02-07T00:14:10.177Z,7.50
2023-02-07T00:16:36.942Z,7.18
2023-02-07T00:19:04.003Z,7.38
2023-02-07T00:21:31.018Z,7.30
2023-02-07T00:23:58.181Z,7.40
2023-02-07T00:26:26.375Z,8.30
2023-02-07T00:28:54.497Z,7.50
2023-02-07T00:31:24.036Z,7.97
2023-02-07T00:33:51.978Z,7.25
2023-02-07T00:36:21.383Z,7.85
2023-02-07T00:38:48.775Z,8.27
2023-02-07T00:41:18.651Z,7.13
2023-02-07T00:43:47.197Z,6.75
2023-02-07T00:46:14.752Z,8.82
2023-02-07T00:48:41.499Z,7.35
2023-02-07T00:51:08.392Z,7.07
2023-02-07T00:53:35.377Z,6.97
2023-02-07T00:56:02.189Z,7.32
2023-02-07T00:58:28.837Z,6.13
2023-02-07T01:00:55.431Z,6.70
2023-02-07T01:03:22.066Z,6.32
2023-02-07T01:05:48.687Z,6.40
2023-02-07T01:08:15.628Z,5.70
2023-02-07T01:10:43.775Z,6.32
2023-02-07T01:13:11.728Z,6.22
2023-02-07T01:15:40.333Z,6.78
2023-02-07T01:18:08.249Z,5.70
2023-02-07T01:20:35.613Z,5.68
2023-02-07T01:23:02.656Z,5.60
2023-02-07T01:25:29.521Z,4.88
2023-02-07T01:27:56.605Z,4.90
2023-02-07T01:30:23.695Z,4.90
2023-02-07T01:32:50.766Z,4.38
2023-02-07T01:35:17.417Z,4.40
2023-02-07T01:37:43.972Z,4.47
2023-02-07T01:40:12.018Z,4.10
2023-02-07T01:42:38.772Z,3.67
2023-02-07T01:45:29.746Z,4.53
2023-02-07T01:48:00.845Z,3.80
2023-02-07T01:50:27.693Z,3.50
2023-02-07T01:52:55.573Z,3.58
2023-02-07T01:55:28.590Z,3.80
2023-02-07T01:57:55.513Z,4.22
2023-02-07T02:00:22.267Z,4.10
2023-02-07T02:02:48.964Z,4.30
2023-02-07T02:05:16.532Z,3.78
2023-02-07T02:07:43.217Z,3.72
2023-02-07T02:10:18.366Z,3.60
2023-02-07T02:13:03.153Z,3.55
2023-02-07T02:15:38.296Z,3.17
2023-02-07T02:18:20.364Z,3.38
2023-02-07T02:21:10.188Z,3.45
2023-02-07T02:23:58.262Z,3.40
2023-02-07T02:27:23.734Z,3.65
2023-02-07T02:30:02.212Z,3.25
2023-02-07T02:32:57.512Z,3.38
2023-02-07T02:35:43.780Z,3.42
2023-02-07T02:38:21.828Z,3.55
2023-02-07T02:41:11.668Z,3.50
2023-02-07T02:43:46.284Z,3.90
2023-02-07T02:46:21.630Z,3.45
2023-02-07T02:48:49.757Z,3.28
2023-02-07T02:51:16.377Z,3.10
2023-02-07T02:53:57.400Z,3.35
2023-02-07T02:56:41.122Z,3.63
2023-02-07T02:59:29.001Z,3.13
2023-02-07T03:02:18.351Z,3.55
2023-02-07T03:04:59.824Z,3.47
2023-02-07T03:07:44.406Z,3.00
2023-02-07T03:10:27.885Z,3.38
2023-02-07T03:13:05.393Z,3.55
2023-02-07T03:15:37.921Z,4.25
2023-02-07T03:18:14.454Z,3.45
2023-02-07T03:20:53.588Z,3.70
2023-02-07T03:23:21.261Z,3.85
2023-02-07T03:25:50.974Z,3.65
2023-02-07T03:28:20.710Z,4.28
2023-02-07T03:30:50.408Z,3.85
2023-02-07T03:33:19.019Z,4.15
2023-02-07T03:36:06.215Z,3.67
2023-02-07T03:38:32.870Z,4.18
2023-02-07T03:41:06.279Z,3.83
2023-02-07T03:43:35.087Z,4.10
2023-02-07T03:46:01.665Z,3.80
2023-02-07T03:48:28.337Z,3.92
2023-02-07T03:50:54.913Z,4.28
2023-02-07T03:53:21.935Z,3.53
2023-02-07T03:55:48.493Z,3.63
2023-02-07T03:58:15.172Z,3.33
2023-02-07T04:00:41.983Z,3.70
2023-02-07T04:03:08.590Z,3.83
2023-02-07T04:05:35.429Z,3.50
2023-02-07T04:08:02.640Z,3.60
2023-02-07T04:10:29.389Z,3.45
2023-02-07T04:12:55.955Z,3.80
2023-02-07T04:15:22.728Z,3.83
2023-02-07T04:17:49.262Z,4.00
2023-02-07T04:20:15.934Z,3.47
2023-02-07T04:22:42.498Z,3.70
2023-02-07T04:25:09.157Z,3.45
2023-02-07T04:27:35.737Z,3.70
2023-02-07T04:30:02.343Z,3.25
2023-02-07T04:32:28.912Z,3.63
2023-02-07T04:34:55.489Z,3.47
2023-02-07T04:37:22.132Z,3.70
2023-02-07T04:39:48.782Z,3.53
2023-02-07T04:42:15.456Z,3.20
2023-02-07T04:44:41.993Z,3.75
2023-02-07T04:47:08.613Z,3.40
2023-02-07T04:49:35.228Z,3.92
2023-02-07T04:52:02.268Z,3.47
2023-02-07T04:54:28.826Z,3.50
2023-02-07T04:56:55.477Z,3.58
2023-02-07T04:59:22.172Z,3.58
2023-02-07T05:01:48.804Z,3.80
2023-02-07T05:04:15.359Z,3.97
2023-02-07T05:06:41.944Z,3.58
2023-02-07T05:09:08.493Z,3.25
2023-02-07T05:11:35.286Z,3.30
2023-02-07T05:14:01.961Z,3.75
2023-02-07T05:16:28.527Z,3.53
2023-02-07T05:18:55.224Z,3.80
2023-02-07T05:21:21.973Z,3.75
2023-02-07T05:23:48.848Z,3.50
2023-02-07T05:26:17.170Z,3.45
2023-02-07T05:28:44.184Z,3.70
2023-02-07T05:31:10.911Z,3.95
2023-02-07T05:33:37.543Z,3.78
2023-02-07T05:36:05.166Z,3.67
2023-02-07T05:38:32.029Z,3.58
2023-02-07T05:40:58.982Z,3.80
2023-02-07T05:43:25.848Z,3.80
2023-02-07T05:45:52.446Z,4.20
2023-02-07T05:48:19.006Z,4.30
2023-02-07T05:50:45.556Z,4.50
2023-02-07T05:53:13.016Z,3.92
2023-02-07T05:55:39.979Z,4.38
2023-02-07T05:58:06.738Z,4.07
2023-02-07T06:00:33.532Z,3.13
2023-02-07T06:03:00.104Z,3.10
2023-02-07T06:05:31.695Z,3.08
2023-02-07T06:07:58.885Z,3.40
2023-02-07T06:10:25.901Z,3.67
2023-02-07T06:12:52.492Z,3.88
2023-02-07T06:15:19.086Z,3.88
2023-02-07T06:17:45.742Z,3.83
2023-02-07T06:20:12.791Z,4.00
2023-02-07T06:22:39.389Z,3.80
2023-02-07T06:25:08.392Z,4.00
2023-02-07T06:27:34.957Z,4.32
2023-02-07T06:30:01.767Z,3.75
2023-02-07T06:32:28.322Z,4.20
2023-02-07T06:34:54.872Z,4.10
2023-02-07T06:37:21.536Z,4.70
2023-02-07T06:39:48.085Z,4.32
2023-02-07T06:42:14.750Z,4.30
2023-02-07T06:44:41.292Z,4.60
2023-02-07T06:47:08.057Z,4.35
2023-02-07T06:49:34.649Z,4.43
2023-02-07T06:52:01.260Z,4.53
2023-02-07T06:54:27.799Z,4.70
2023-02-07T06:56:54.380Z,4.35
2023-02-07T06:59:21.010Z,4.72
2023-02-07T07:01:49.557Z,4.40
2023-02-07T07:04:16.451Z,4.40
2023-02-07T07:06:43.052Z,4.40
2023-02-07T07:09:09.668Z,4.13
2023-02-07T07:11:42.923Z,4.20
2023-02-07T07:14:10.764Z,4.72
2023-02-07T07:16:38.136Z,5.05
2023-02-07T07:19:04.720Z,4.65
2023-02-07T07:21:31.263Z,4.80
2023-02-07T07:23:57.822Z,5.10
2023-02-07T07:26:24.672Z,5.28
2023-02-07T07:28:51.204Z,5.97
2023-02-07T07:31:17.908Z,6.05
2023-02-07T07:33:44.664Z,8.15
2023-02-07T07:36:11.250Z,6.35
2023-02-07T07:41:09.846Z,6.45
2023-02-07T07:43:36.388Z,6.00
2023-02-07T07:46:03.014Z,6.63
2023-02-07T07:48:29.638Z,5.35
2023-02-07T07:50:56.523Z,4.88
2023-02-07T07:53:23.085Z,4.47
2023-02-07T07:55:54.704Z,4.65
2023-02-07T07:58:22.365Z,5.15
2023-02-07T08:00:49.125Z,5.47
2023-02-07T08:03:17.246Z,5.03
2023-02-07T08:05:44.539Z,4.80
2023-02-07T08:08:11.995Z,5.15
2023-02-07T08:10:40.031Z,4.88
2023-02-07T08:13:06.977Z,5.78
2023-02-07T08:15:33.916Z,4.88
2023-02-07T08:18:00.509Z,5.72
2023-02-07T08:20:27.233Z,6.07
2023-02-07T08:22:58.107Z,4.95
2023-02-07T08:25:25.725Z,5.43
2023-02-07T08:27:52.887Z,4.95
2023-02-07T08:30:19.974Z,5.80
2023-02-07T08:32:46.709Z,5.20
2023-02-07T08:35:13.419Z,6.30
2023-02-07T08:37:40.006Z,5.00
2023-02-07T08:40:08.199Z,5.05
2023-02-07T08:42:34.830Z,5.95
2023-02-07T08:45:01.387Z,5.25
2023-02-07T08:47:28.026Z,5.43
2023-02-07T08:49:54.589Z,5.35
2023-02-07T08:52:21.150Z,5.00
2023-02-07T08:54:47.842Z,5.30
2023-02-07T08:57:14.618Z,5.30
2023-02-07T08:59:41.183Z,5.05
2023-02-07T09:02:07.774Z,5.25
2023-02-07T09:04:36.463Z,5.38
2023-02-07T09:07:03.206Z,5.15
2023-02-07T09:09:32.267Z,5.40
2023-02-07T09:11:58.819Z,5.68
2023-02-07T09:14:25.531Z,5.10
2023-02-07T09:16:52.109Z,5.43
2023-02-07T09:19:19.291Z,5.35
2023-02-07T09:21:45.922Z,5.70
2023-02-07T09:24:12.556Z,5.15
2023-02-07T09:26:39.875Z,5.53
2023-02-07T09:29:07.498Z,5.82
2023-02-07T09:31:34.633Z,5.63
2023-02-07T09:34:02.742Z,5.18
2023-02-07T09:36:30.999Z,5.28
2023-02-07T09:38:58.646Z,5.55
2023-02-07T09:41:55.959Z,5.07
2023-02-07T09:44:41.189Z,5.60
2023-02-07T09:47:13.279Z,5.80
2023-02-07T09:49:39.834Z,5.78
2023-02-07T09:52:14.177Z,5.40
2023-02-07T09:54:44.363Z,6.47
2023-02-07T09:57:31.748Z,5.50
2023-02-07T10:00:07.240Z,5.05
2023-02-07T10:02:44.778Z,5.97
2023-02-07T10:05:26.535Z,6.35
2023-02-07T10:07:53.175Z,7.00
2023-02-07T10:10:39.288Z,6.82
2023-02-07T10:13:37.941Z,6.53
2023-02-07T10:16:07.258Z,5.75
2023-02-07T10:18:33.884Z,6.35
2023-02-07T10:21:05.077Z,6.07
2023-02-07T10:23:45.002Z,5.53
2023-02-07T10:26:11.639Z,6.88
2023-02-07T10:29:04.218Z,6.28
2023-02-07T10:31:34.644Z,6.35
2023-02-07T10:34:10.846Z,6.38
2023-02-07T10:36:40.825Z,6.10
2023-02-07T10:39:29.933Z,6.07
2023-02-07T10:41:57.734Z,6.35
2023-02-07T10:44:25.930Z,6.38
2023-02-07T10:47:01.820Z,7.15
2023-02-07T10:49:31.771Z,6.65
2023-02-07T10:52:02.784Z,6.53
2023-02-07T10:54:29.784Z,6.38
2023-02-07T10:57:02.436Z,5.93
2023-02-07T10:59:32.328Z,5.85
2023-02-07T11:01:59.655Z,6.20
2023-02-07T11:04:43.805Z,5.95
2023-02-07T11:07:15.391Z,6.32
2023-02-07T11:09:42.361Z,6.18
2023-02-07T11:12:20.244Z,5.90
2023-02-07T11:15:07.970Z,6.43
2023-02-07T11:17:35.262Z,5.95
2023-02-07T11:20:06.693Z,6.57
2023-02-07T11:22:34.137Z,6.18
2023-02-07T11:25:04.821Z,6.65
2023-02-07T11:27:39.520Z,6.65
2023-02-07T11:30:09.834Z,6.30
2023-02-07T11:32:38.487Z,5.30
2023-02-07T11:35:09.678Z,6.65
2023-02-07T11:37:42.168Z,5.85
2023-02-07T11:40:48.180Z,5.90
2023-02-07T11:43:17.941Z,6.55
2023-02-07T11:45:48.575Z,6.60
2023-02-07T11:48:25.865Z,6.88
2023-02-07T11:50:55.284Z,5.75
2023-02-07T11:53:45.682Z,5.97
2023-02-07T11:56:33.031Z,6.88
2023-02-07T11:59:03.802Z,6.18
2023-02-07T12:01:33.609Z,5.88
2023-02-07T12:04:10.819Z,7.72
2023-02-07T12:06:45.310Z,6.25
2023-02-07T12:09:33.289Z,5.95
2023-02-07T12:12:04.639Z,5.72
2023-02-07T12:14:45.055Z,5.63
2023-02-07T12:17:21.472Z,5.97
2023-02-07T12:19:55.968Z,5.57
2023-02-07T12:22:29.156Z,5.90
2023-02-07T12:25:02.549Z,5.35
2023-02-07T12:27:31.905Z,5.80
2023-02-07T12:30:16.842Z,6.25
2023-02-07T12:32:54.816Z,5.03
2023-02-07T12:35:55.552Z,5.55
2023-02-07T12:38:26.620Z,5.50
2023-02-07T12:40:55.289Z,6.03
2023-02-07T12:43:28.181Z,4.93
2023-02-07T12:45:58.312Z,5.60
2023-02-07T12:48:56.012Z,5.40
2023-02-07T12:51:56.571Z,5.55
2023-02-07T12:54:56.144Z,6.30
2023-02-07T12:57:47.619Z,6.32
2023-02-07T13:00:16.988Z,5.33
2023-02-07T13:03:14.659Z,5.55
2023-02-07T13:06:02.309Z,5.50
2023-02-07T13:08:39.131Z,4.82
2023-02-07T13:11:27.642Z,5.72
2023-02-07T13:14:23.344Z,5.30
2023-02-07T13:16:58.943Z,5.47
2023-02-07T13:19:35.980Z,5.57
2023-02-07T13:22:10.074Z,5.78
2023-02-07T13:24:40.287Z,5.22
2023-02-07T13:27:17.418Z,5.75
2023-02-07T13:29:46.312Z,5.28
2023-02-07T13:32:25.299Z,6.00
2023-02-07T13:35:04.348Z,5.25
2023-02-07T13:38:12.226Z,5.55
2023-02-07T13:40:56.310Z,5.15
2023-02-07T13:43:39.824Z,5.53
2023-02-07T13:46:21.524Z,5.55
2023-02-07T13:49:06.836Z,6.25
2023-02-07T13:51:53.314Z,5.45
2023-02-07T13:54:31.029Z,5.60
2023-02-07T13:57:18.887Z,5.80
2023-02-07T14:00:15.966Z,13.07
2023-02-07T14:02:50.270Z,5.78
2023-02-07T14:05:23.560Z,5.82
2023-02-07T14:07:57.631Z,5.22
2023-02-07T14:10:55.578Z,5.20
2023-02-07T14:13:28.067Z,6.38
2023-02-07T14:15:54.701Z,5.22
2023-02-07T14:18:41.953Z,6.07
2023-02-07T14:21:21.242Z,6.55
2023-02-07T14:23:59.944Z,5.40
2023-02-07T14:26:39.012Z,5.60
2023-02-07T14:29:20.746Z,5.68
2023-02-07T14:31:55.369Z,6.50
2023-02-07T14:34:24.920Z,8.95
2023-02-07T14:36:54.986Z,43.30
2023-02-07T14:39:33.583Z,16.95
2023-02-07T14:42:18.299Z,10.80
2023-02-07T14:44:48.160Z,7.90
2023-02-07T14:47:28.231Z,5.68
2023-02-07T14:49:59.674Z,6.10
2023-02-07T14:52:31.141Z,5.97
2023-02-07T14:55:14.964Z,5.53
2023-02-07T14:57:51.989Z,5.47
2023-02-07T15:00:28.818Z,6.13
2023-02-07T15:02:58.634Z,7.22
2023-02-07T15:05:37.336Z,6.63
2023-02-07T15:08:03.891Z,6.22
2023-02-07T15:10:44.112Z,7.13
2023-02-07T15:13:25.205Z,5.93
2023-02-07T15:15:54.808Z,5.85
2023-02-07T15:18:23.728Z,5.80
2023-02-07T15:20:54.074Z,6.57
2023-02-07T15:23:23.021Z,5.63
2023-02-07T15:25:50.287Z,7.63
2023-02-07T15:28:26.624Z,6.95
2023-02-07T15:30:58.869Z,7.78
2023-02-07T15:33:27.511Z,7.10
2023-02-07T15:35:54.099Z,5.60
2023-02-07T15:38:26.477Z,7.57
2023-02-07T15:40:54.454Z,4.95
2023-02-07T15:43:31.784Z,4.97
2023-02-07T15:46:10.726Z,5.30
2023-02-07T15:48:55.403Z,4.78
2023-02-07T15:51:29.188Z,5.90
2023-02-07T15:53:58.803Z,5.68
2023-02-07T15:56:29.818Z,4.97
2023-02-07T15:59:03.381Z,5.57
2023-02-07T16:01:30.883Z,4.93
2023-02-07T16:03:58.493Z,5.78
2023-02-07T16:06:27.583Z,5.30
2023-02-07T16:08:57.871Z,5.45
2023-02-07T16:11:27.265Z,5.50
2023-02-07T16:13:59.779Z,5.93
2023-02-07T16:16:42.089Z,5.43
2023-02-07T16:19:14.494Z,5.68
2023-02-07T16:21:45.859Z,5.65
2023-02-07T16:24:18.618Z,5.32
2023-02-07T16:26:45.670Z,5.60
2023-02-07T16:29:24.823Z,5.85
2023-02-07T16:31:52.826Z,6.40
2023-02-07T16:34:21.118Z,6.43
2023-02-07T16:36:53.358Z,6.40
2023-02-07T16:39:20.799Z,6.28
2023-02-07T16:41:54.835Z,6.20
2023-02-07T16:44:26.164Z,5.80
2023-02-07T16:46:52.798Z,5.78
2023-02-07T16:49:24.994Z,5.85
2023-02-07T16:51:51.923Z,5.75
2023-02-07T16:54:19.259Z,6.18
2023-02-07T16:56:49.002Z,6.28
2023-02-07T16:59:21.470Z,5.88
2023-02-07T17:01:49.551Z,6.00
2023-02-07T17:04:16.519Z,6.28
2023-02-07T17:06:44.446Z,6.28
2023-02-07T17:09:20.802Z,6.55
2023-02-07T17:11:47.949Z,7.13
2023-02-07T17:14:14.634Z,7.20
2023-02-07T17:16:41.524Z,6.72
2023-02-07T17:19:15.100Z,7.47
2023-02-07T17:21:42.705Z,7.57
2023-02-07T17:24:09.966Z,7.15
2023-02-07T17:26:37.742Z,7.03
2023-02-07T17:29:05.854Z,8.10
2023-02-07T17:31:33.166Z,7.65
2023-02-07T17:34:00.050Z,7.38
2023-02-07T17:36:28.909Z,6.68
2023-02-07T17:38:58.437Z,6.63
2023-02-07T17:41:25.066Z,8.13
2023-02-07T17:43:51.928Z,9.23
2023-02-07T17:46:19.965Z,8.68
2023-02-07T17:48:47.980Z,9.63
2023-02-07T17:51:15.787Z,10.10
2023-02-07T17:53:43.623Z,11.88
2023-02-07T17:56:17.493Z,9.18
2023-02-07T17:58:44.155Z,8.63
2023-02-07T18:01:10.761Z,6.63
2023-02-07T18:03:37.355Z,6.60
2023-02-07T18:06:04.040Z,6.38
2023-02-07T18:08:30.648Z,6.78
2023-02-07T18:11:01.490Z,6.18
2023-02-07T18:13:28.057Z,6.35
2023-02-07T18:15:54.781Z,6.20
2023-02-07T18:18:21.432Z,5.75
2023-02-07T18:20:47.980Z,6.15
2023-02-07T18:23:15.517Z,6.40
2023-02-07T18:25:47.652Z,6.53
2023-02-07T18:28:14.869Z,6.55
2023-02-07T18:30:41.971Z,6.85
2023-02-07T18:33:09.199Z,6.75
2023-02-07T18:35:36.222Z,6.88
2023-02-07T18:38:03.548Z,7.28
2023-02-07T18:40:30.178Z,8.23
2023-02-07T18:42:56.790Z,8.27
2023-02-07T18:45:24.324Z,9.50
2023-02-07T18:47:50.911Z,10.00
2023-02-07T18:50:19.824Z,9.88
2023-02-07T18:52:47.373Z,9.68
2023-02-07T18:55:13.988Z,9.55
2023-02-07T18:57:40.816Z,8.43
2023-02-07T19:00:09.611Z,9.25
2023-02-07T19:02:36.532Z,8.27
2023-02-07T19:05:03.586Z,8.13
2023-02-07T19:07:30.214Z,8.70
2023-02-07T19:09:56.795Z,8.73
2023-02-07T19:12:23.506Z,9.32
2023-02-07T19:14:50.147Z,9.60
2023-02-07T19:17:16.786Z,9.77
2023-02-07T19:19:43.411Z,9.95
2023-02-07T19:22:10.009Z,8.85
2023-02-07T19:24:37.153Z,10.23
2023-02-07T19:27:05.222Z,8.65
2023-02-07T19:29:33.299Z,8.80
2023-02-07T19:32:06.509Z,8.40
2023-02-07T19:34:33.354Z,7.75
2023-02-07T19:37:00.226Z,8.82
2023-02-07T19:39:26.953Z,7.90
2023-02-07T19:41:54.092Z,7.80
2023-02-07T19:44:21.032Z,7.75
2023-02-07T19:46:47.659Z,7.63
2023-02-07T19:49:15.733Z,7.80
2023-02-07T19:51:42.759Z,8.23
2023-02-07T19:54:09.604Z,7.53
2023-02-07T19:56:37.621Z,7.70
2023-02-07T19:59:06.417Z,7.95
2023-02-07T20:01:34.800Z,8.38
2023-02-07T20:04:01.854Z,8.15
2023-02-07T20:06:32.985Z,8.57
2023-02-07T20:09:01.920Z,8.75
2023-02-07T20:11:29.357Z,9.02
2023-02-07T20:14:03.585Z,9.73
2023-02-07T20:16:33.824Z,9.15
2023-02-07T20:19:01.188Z,8.82
2023-02-07T20:21:30.004Z,9.18
2023-02-07T20:23:57.716Z,8.27
2023-02-07T20:26:33.570Z,8.15
2023-02-07T20:29:02.112Z,8.75
2023-02-07T20:31:31.874Z,8.20
2023-02-07T20:33:59.101Z,8.10
2023-02-07T20:36:26.597Z,8.38
2023-02-07T20:38:53.197Z,8.82
2023-02-07T20:41:31.614Z,8.65
2023-02-07T20:44:04.740Z,8.90
2023-02-07T20:46:33.225Z,8.27
2023-02-07T20:49:08.036Z,8.82
2023-02-07T20:51:35.100Z,8.70
2023-02-07T20:54:04.051Z,9.07
2023-02-07T20:56:32.728Z,7.85
2023-02-07T20:59:00.111Z,8.57
2023-02-07T21:01:28.623Z,8.45
2023-02-07T21:03:59.649Z,8.68
2023-02-07T21:06:27.392Z,8.27
2023-02-07T21:09:00.792Z,8.98
2023-02-07T21:11:30.369Z,8.48
2023-02-07T21:13:56.959Z,9.07
2023-02-07T21:16:23.773Z,8.45
2023-02-07T21:18:50.724Z,9.07
2023-02-07T21:21:18.305Z,9.65
2023-02-07T21:23:45.268Z,10.27
2023-02-07T21:26:14.922Z,9.40
2023-02-07T21:28:43.529Z,9.15
2023-02-07T21:31:21.214Z,9.45
2023-02-07T21:33:51.799Z,8.93
2023-02-07T21:36:23.996Z,9.27
2023-02-07T21:38:52.340Z,8.65
2023-02-07T21:41:22.305Z,9.20
2023-02-07T21:43:49.182Z,8.73
2023-02-07T21:46:22.787Z,9.02
2023-02-07T21:48:52.291Z,9.48
2023-02-07T21:51:21.541Z,9.35
2023-02-07T21:53:50.022Z,9.90
2023-02-07T21:56:20.310Z,9.15
2023-02-07T21:58:47.786Z,9.60
2023-02-07T22:01:19.866Z,9.27
2023-02-07T22:03:48.831Z,9.57
2023-02-07T22:06:16.928Z,9.75
2023-02-07T22:08:53.341Z,10.15
2023-02-07T22:11:22.438Z,9.93
2023-02-07T22:13:51.267Z,9.98
2023-02-07T22:16:19.662Z,10.38
2023-02-07T22:18:46.275Z,9.65
2023-02-07T22:21:14.190Z,10.18
2023-02-07T22:23:41.698Z,10.77
2023-02-07T22:26:08.798Z,10.20
2023-02-07T22:28:37.547Z,9.75
2023-02-07T22:31:15.657Z,10.05
2023-02-07T22:33:47.089Z,9.77
2023-02-07T22:36:15.994Z,10.00
2023-02-07T22:38:42.820Z,9.75
2023-02-07T22:41:09.632Z,10.38
2023-02-07T22:43:36.710Z,10.60
2023-02-07T22:46:05.367Z,11.13
2023-02-07T22:48:32.988Z,10.75
2023-02-07T22:51:00.093Z,9.90
2023-02-07T22:53:27.098Z,10.68
2023-02-07T22:55:53.679Z,10.73
2023-02-07T22:58:20.346Z,10.43
2023-02-07T23:00:46.942Z,10.07
2023-02-07T23:03:13.523Z,8.52
2023-02-07T23:05:40.191Z,8.45
2023-02-07T23:08:06.907Z,8.70
2023-02-07T23:10:33.517Z,8.13
2023-02-07T23:13:00.165Z,9.48
2023-02-07T23:15:27.339Z,8.10
2023-02-07T23:17:53.919Z,8.10
2023-02-07T23:20:20.573Z,8.80
2023-02-07T23:22:47.124Z,8.43
2023-02-07T23:25:16.173Z,8.40
2023-02-07T23:27:45.625Z,7.88
2023-02-07T23:30:14.363Z,8.07
2023-02-07T23:32:41.236Z,8.20
2023-02-07T23:35:08.788Z,8.13
2023-02-07T23:37:35.554Z,7.78
2023-02-07T23:40:02.317Z,7.97
2023-02-07T23:42:28.934Z,8.15
2023-02-07T23:44:55.531Z,7.78
2023-02-07T23:47:22.156Z,8.02
2023-02-07T23:49:48.712Z,8.70
2023-02-07T23:52:15.295Z,9.18
2023-02-07T23:54:41.885Z,8.70
2023-02-07T23:57:08.572Z,7.85
2023-02-07T23:59:35.447Z,8.43
